TGS weather

Tigre Airport
Cajeme, Sonora, Mexico

Public forecast

Using degrees Celsius for public forecast. Weather courtesy of forecast.io.

Closest aviation weather report (METAR) to Tigre Airport

Closest report is Ciudad Obregón International Airport, 7.0 nm (12.9 km) E. Retrieved 2019/12/09 20:42 UTC (6 minutes ago):

MMCN 092042Z 10003KT 10SM BKN070 BKN100 22/16 A2988 RMK SLP119 8/070 LWR SC NW

Closest aviation forecast (TAF) to Tigre Airport

Closest forecast is Ciudad Obregón International Airport, 7.0 nm (12.9 km) E. Retrieved 2019/12/09 18:53 UTC (2 hours ago):

TAF MMCN 091641Z 0918/1018 12005KT P6SM SCT030 BKN100 OVC200 TEMPO 0918/0922 4SM RA BKN015 FM100000 35006KT P6SM BKN015 FM101400 36008KT P6SM SKC